createdAt,value
2017-09-21T00:01:47.879Z,10.82
2017-09-21T00:04:15.391Z,13.02
2017-09-21T00:06:42.891Z,9.65
2017-09-21T00:09:10.409Z,12.57
2017-09-21T00:11:37.897Z,8.90
2017-09-21T00:14:05.418Z,11.55
2017-09-21T00:16:32.921Z,10.55
2017-09-21T00:19:00.421Z,9.98
2017-09-21T00:21:27.930Z,12.73
2017-09-21T00:23:55.462Z,11.48
2017-09-21T00:26:22.958Z,10.35
2017-09-21T00:28:51.240Z,9.77
2017-09-21T00:31:18.738Z,10.68
2017-09-21T00:33:47.010Z,10.88
2017-09-21T00:36:15.278Z,9.90
2017-09-21T00:38:43.567Z,9.45
2017-09-21T00:41:11.075Z,10.25
2017-09-21T00:43:38.610Z,10.95
2017-09-21T00:46:06.109Z,9.15
2017-09-21T00:48:34.389Z,10.00
2017-09-21T00:51:02.666Z,9.88
2017-09-21T00:53:30.926Z,9.73
2017-09-21T00:55:58.466Z,13.95
2017-09-21T00:58:25.975Z,10.00
2017-09-21T01:00:53.507Z,10.73
2017-09-21T01:03:21.015Z,9.77
2017-09-21T01:05:48.543Z,11.07
2017-09-21T01:08:16.810Z,12.73
2017-09-21T01:10:45.094Z,9.85
2017-09-21T01:13:13.358Z,11.00
2017-09-21T01:15:41.646Z,11.23
2017-09-21T01:18:09.919Z,10.85
2017-09-21T01:20:38.198Z,11.12
2017-09-21T01:23:06.462Z,9.65
2017-09-21T01:25:33.984Z,9.82
2017-09-21T01:28:01.483Z,10.88
2017-09-21T01:30:29.774Z,12.05
2017-09-21T01:32:58.042Z,11.88
2017-09-21T01:35:26.325Z,11.82
2017-09-21T01:37:54.595Z,12.50
2017-09-21T01:40:22.882Z,10.45
2017-09-21T01:42:51.157Z,11.25
2017-09-21T01:45:19.459Z,10.43
2017-09-21T01:47:46.960Z,10.80
2017-09-21T01:50:14.454Z,9.10
2017-09-21T01:52:42.437Z,12.55
2017-09-21T01:55:09.938Z,10.93
2017-09-21T01:57:37.463Z,11.02
2017-09-21T02:00:04.981Z,12.35
2017-09-21T02:02:33.274Z,10.25
2017-09-21T02:05:01.547Z,18.35
2017-09-21T02:07:29.067Z,9.05
2017-09-21T02:09:56.561Z,13.13
2017-09-21T02:12:24.858Z,9.90
2017-09-21T02:14:52.367Z,9.18
2017-09-21T02:17:19.894Z,11.60
2017-09-21T02:19:47.411Z,15.57
2017-09-21T02:22:15.711Z,10.38
2017-09-21T02:24:43.218Z,15.63
2017-09-21T02:27:10.734Z,12.45
2017-09-21T02:29:38.235Z,12.52
2017-09-21T02:32:05.763Z,11.68
2017-09-21T02:34:33.274Z,11.65
2017-09-21T02:37:00.815Z,10.95
2017-09-21T02:39:28.329Z,20.62
2017-09-21T02:41:55.865Z,11.60
2017-09-21T02:44:24.131Z,11.45
2017-09-21T02:46:51.626Z,11.30
2017-09-21T02:49:19.185Z,11.55
2017-09-21T02:51:47.460Z,14.82
2017-09-21T02:54:15.746Z,13.23
2017-09-21T02:56:43.241Z,12.98
2017-09-21T02:59:10.753Z,13.43
2017-09-21T03:01:39.018Z,11.48
2017-09-21T03:04:07.308Z,12.95
2017-09-21T03:06:35.585Z,13.27
2017-09-21T03:09:03.871Z,11.18
2017-09-21T03:11:31.390Z,11.10
2017-09-21T03:13:58.913Z,11.43
2017-09-21T03:16:26.422Z,11.98
2017-09-21T03:18:53.938Z,12.68
2017-09-21T03:21:22.215Z,9.85
2017-09-21T03:23:49.743Z,12.60
2017-09-21T03:26:17.245Z,14.10
2017-09-21T03:28:44.762Z,11.90
2017-09-21T03:31:12.286Z,9.10
2017-09-21T03:33:39.809Z,11.65
2017-09-21T03:36:07.324Z,23.08
2017-09-21T03:38:35.618Z,9.18
2017-09-21T03:41:03.131Z,12.10
2017-09-21T03:43:30.646Z,9.70
2017-09-21T03:45:58.149Z,10.15
2017-09-21T03:48:25.650Z,11.77
2017-09-21T03:50:53.182Z,10.07
2017-09-21T03:53:20.703Z,10.70
2017-09-21T03:55:48.217Z,9.70
2017-09-21T03:58:16.493Z,11.15
2017-09-21T04:00:44.781Z,11.12
2017-09-21T04:03:12.277Z,12.82
2017-09-21T04:05:39.798Z,11.40
2017-09-21T04:08:07.294Z,9.55
2017-09-21T04:10:35.590Z,12.23
2017-09-21T04:13:03.090Z,10.13
2017-09-21T04:15:30.606Z,11.73
2017-09-21T04:17:58.111Z,11.98
2017-09-21T04:20:25.655Z,10.65
2017-09-21T04:22:53.162Z,12.48
2017-09-21T04:25:21.461Z,10.27
2017-09-21T04:27:48.986Z,10.45
2017-09-21T04:30:16.497Z,10.68
2017-09-21T04:32:44.039Z,9.55
2017-09-21T04:35:11.554Z,12.02
2017-09-21T04:37:39.053Z,8.90
2017-09-21T04:40:06.579Z,10.77
2017-09-21T04:42:34.074Z,9.73
2017-09-21T04:45:01.605Z,10.15
2017-09-21T04:47:29.879Z,10.05
2017-09-21T04:49:58.141Z,9.32
2017-09-21T04:52:25.654Z,9.43
2017-09-21T04:54:53.155Z,9.18
2017-09-21T04:57:20.674Z,9.02
2017-09-21T04:59:48.170Z,8.77
2017-09-21T05:02:15.687Z,10.15
2017-09-21T05:04:43.189Z,9.35
2017-09-21T05:07:10.703Z,8.50
2017-09-21T05:09:38.198Z,15.32
2017-09-21T05:12:05.720Z,7.55
2017-09-21T05:14:33.217Z,10.30
2017-09-21T05:17:00.731Z,8.85
2017-09-21T05:19:28.239Z,10.23
2017-09-21T05:21:55.754Z,12.20
2017-09-21T05:24:23.253Z,17.85
2017-09-21T05:26:50.770Z,8.75
2017-09-21T05:29:18.273Z,12.10
2017-09-21T05:31:45.785Z,10.85
2017-09-21T05:34:13.286Z,9.75
2017-09-21T05:36:40.802Z,9.52
2017-09-21T05:39:08.301Z,9.10
2017-09-21T05:41:35.824Z,7.87
2017-09-21T05:44:03.313Z,7.78
2017-09-21T05:46:30.844Z,11.55
2017-09-21T05:48:58.342Z,11.02
2017-09-21T05:51:25.849Z,12.02
2017-09-21T05:53:53.370Z,7.28
2017-09-21T05:56:21.635Z,8.32
2017-09-21T05:58:49.158Z,10.90
2017-09-21T06:01:16.659Z,7.85
2017-09-21T06:03:44.179Z,12.27
2017-09-21T06:06:11.681Z,7.35
2017-09-21T06:08:39.465Z,12.23
2017-09-21T06:11:06.985Z,9.02
2017-09-21T06:13:34.515Z,11.35
2017-09-21T06:16:02.010Z,7.87
2017-09-21T06:18:29.602Z,9.45
2017-09-21T06:20:57.123Z,15.13
2017-09-21T06:23:24.666Z,7.22
2017-09-21T06:25:52.190Z,10.05
2017-09-21T06:28:19.716Z,11.63
2017-09-21T06:30:47.226Z,15.27
2017-09-21T06:33:14.759Z,9.27
2017-09-21T06:35:42.273Z,9.65
2017-09-21T06:38:09.811Z,11.10
2017-09-21T06:40:37.310Z,10.85
2017-09-21T06:43:04.818Z,9.85
2017-09-21T06:45:32.337Z,11.93
2017-09-21T06:48:00.651Z,10.38
2017-09-21T06:50:28.150Z,13.35
2017-09-21T06:52:55.670Z,15.70
2017-09-21T06:55:23.203Z,10.55
2017-09-21T06:57:51.486Z,10.65
2017-09-21T07:00:19.767Z,11.05
2017-09-21T07:02:47.279Z,10.68
2017-09-21T07:05:14.806Z,11.18
2017-09-21T07:07:42.306Z,10.75
2017-09-21T07:10:09.827Z,10.43
2017-09-21T07:12:37.328Z,12.68
2017-09-21T07:15:04.862Z,14.48
2017-09-21T07:17:32.367Z,13.10
2017-09-21T07:20:00.655Z,11.55
2017-09-21T07:22:28.165Z,14.43
2017-09-21T07:24:55.728Z,15.43
2017-09-21T07:27:23.230Z,11.60
2017-09-21T07:29:50.778Z,15.90
2017-09-21T07:32:18.286Z,14.93
2017-09-21T07:34:45.807Z,15.40
2017-09-21T07:37:13.319Z,16.33
2017-09-21T07:39:40.853Z,24.40
2017-09-21T07:42:08.374Z,14.90
2017-09-21T07:44:36.671Z,17.12
2017-09-21T07:47:04.976Z,23.60
2017-09-21T07:49:32.491Z,23.73
2017-09-21T07:52:00.010Z,21.85
2017-09-21T07:54:27.518Z,23.70
2017-09-21T07:56:55.034Z,27.70
2017-09-21T07:59:22.535Z,27.15
2017-09-21T08:01:50.061Z,26.30
2017-09-21T08:04:17.574Z,28.15
2017-09-21T08:06:45.110Z,27.92
2017-09-21T08:09:12.622Z,35.17
2017-09-21T08:11:40.152Z,36.85
2017-09-21T08:14:07.658Z,34.95
2017-09-21T08:16:35.188Z,32.40
2017-09-21T08:19:02.738Z,29.42
2017-09-21T08:21:30.266Z,30.50
2017-09-21T08:23:57.782Z,29.12
2017-09-21T08:26:25.306Z,41.67
2017-09-21T08:28:52.813Z,33.47
2017-09-21T08:31:20.325Z,33.45
2017-09-21T08:33:48.602Z,39.25
2017-09-21T08:36:16.138Z,36.97
2017-09-21T08:38:44.419Z,32.90
2017-09-21T08:41:12.722Z,35.58
2017-09-21T08:43:40.230Z,34.63
2017-09-21T08:46:07.768Z,31.67
2017-09-21T08:48:35.298Z,33.55
2017-09-21T08:51:02.802Z,34.72
2017-09-21T08:53:30.323Z,32.38
2017-09-21T08:55:57.835Z,33.40
2017-09-21T08:58:25.364Z,29.85
2017-09-21T09:00:53.639Z,30.83
2017-09-21T09:03:21.932Z,32.15
2017-09-21T09:05:49.446Z,38.50
2017-09-21T09:08:16.966Z,26.20
2017-09-21T09:10:44.474Z,24.92
2017-09-21T09:13:11.993Z,26.48
2017-09-21T09:15:39.499Z,21.10
2017-09-21T09:18:07.010Z,23.83
2017-09-21T09:20:34.509Z,27.45
2017-09-21T09:23:02.031Z,24.55
2017-09-21T09:25:29.528Z,20.88
2017-09-21T09:27:57.051Z,20.42
2017-09-21T09:30:24.565Z,23.27
2017-09-21T09:32:52.098Z,23.10
2017-09-21T09:35:20.375Z,18.25
2017-09-21T09:37:48.697Z,22.80
2017-09-21T09:40:16.250Z,21.08
2017-09-21T09:42:43.794Z,21.30
2017-09-21T09:45:11.315Z,20.10
2017-09-21T09:47:39.597Z,14.50
2017-09-21T09:50:07.889Z,20.00
2017-09-21T09:52:36.158Z,21.87
2017-09-21T09:55:04.450Z,19.73
2017-09-21T09:57:31.967Z,15.65
2017-09-21T09:59:59.553Z,17.35
2017-09-21T10:02:27.145Z,18.98
2017-09-21T10:04:54.749Z,14.85
2017-09-21T10:07:23.182Z,15.75
2017-09-21T10:09:50.717Z,14.82
2017-09-21T10:12:18.239Z,15.30
2017-09-21T10:14:45.776Z,17.48
2017-09-21T10:17:14.058Z,17.08
2017-09-21T10:19:42.395Z,14.57
2017-09-21T10:22:09.923Z,14.27
2017-09-21T10:24:37.573Z,15.38
2017-09-21T10:27:05.095Z,14.25
2017-09-21T10:29:32.627Z,15.05
2017-09-21T10:32:00.178Z,15.25
2017-09-21T10:34:27.719Z,14.82
2017-09-21T10:36:55.274Z,17.70
2017-09-21T10:39:22.912Z,16.20
2017-09-21T10:41:51.177Z,14.87
2017-09-21T10:44:18.721Z,12.98
2017-09-21T10:46:46.249Z,13.25
2017-09-21T10:49:13.868Z,12.05
2017-09-21T10:51:41.416Z,14.70
2017-09-21T10:54:09.673Z,10.55
2017-09-21T10:56:37.194Z,12.73
2017-09-21T10:59:04.696Z,12.00
2017-09-21T11:01:32.987Z,13.45
2017-09-21T11:04:01.250Z,11.30
2017-09-21T11:06:28.775Z,10.63
2017-09-21T11:08:56.341Z,12.07
2017-09-21T11:11:23.854Z,8.30
2017-09-21T11:13:51.366Z,8.77
2017-09-21T11:16:18.890Z,11.73
2017-09-21T11:18:46.393Z,8.60
2017-09-21T11:21:13.915Z,10.15
2017-09-21T11:23:41.422Z,8.18
2017-09-21T11:26:08.933Z,10.65
2017-09-21T11:28:36.434Z,8.02
2017-09-21T11:31:03.960Z,7.82
2017-09-21T11:33:31.453Z,8.95
2017-09-21T11:35:58.962Z,9.40
2017-09-21T11:38:26.474Z,7.80
2017-09-21T11:40:53.986Z,8.48
2017-09-21T11:43:21.487Z,5.50
2017-09-21T11:45:49.001Z,5.90
2017-09-21T11:48:16.519Z,6.15
2017-09-21T11:50:44.783Z,6.43
2017-09-21T11:53:12.300Z,5.75
2017-09-21T11:55:39.813Z,6.50
2017-09-21T11:58:07.342Z,6.10
2017-09-21T12:00:34.843Z,8.85
2017-09-21T12:03:03.122Z,4.70
2017-09-21T12:05:31.408Z,5.78
2017-09-21T12:07:58.930Z,6.40
2017-09-21T12:10:26.500Z,8.32
2017-09-21T12:12:54.001Z,9.27
2017-09-21T12:15:21.507Z,7.20
2017-09-21T12:17:49.050Z,6.10
2017-09-21T12:20:16.557Z,7.22
2017-09-21T12:22:44.075Z,9.00
2017-09-21T12:25:11.578Z,11.40
2017-09-21T12:27:39.108Z,7.07
2017-09-21T12:30:06.618Z,11.68
2017-09-21T12:32:34.139Z,7.70
2017-09-21T12:35:02.395Z,7.55
2017-09-21T12:37:29.908Z,10.45
2017-09-21T12:39:57.429Z,7.50
2017-09-21T12:42:24.966Z,9.07
2017-09-21T12:44:52.471Z,7.47
2017-09-21T12:47:20.010Z,5.75
2017-09-21T12:49:47.510Z,8.48
2017-09-21T12:52:15.024Z,7.57
2017-09-21T12:54:43.319Z,6.12
2017-09-21T12:57:10.830Z,6.90
2017-09-21T12:59:38.356Z,7.15
2017-09-21T13:02:05.878Z,11.32
2017-09-21T13:04:34.159Z,6.65
2017-09-21T13:07:02.432Z,6.00
2017-09-21T13:09:29.959Z,8.27
2017-09-21T13:11:57.466Z,9.85
2017-09-21T13:14:25.874Z,7.72
2017-09-21T13:16:53.390Z,8.15
2017-09-21T13:19:21.707Z,11.50
2017-09-21T13:21:49.212Z,5.95
2017-09-21T13:24:16.732Z,9.52
2017-09-21T13:26:44.252Z,6.97
2017-09-21T13:29:12.538Z,7.32
2017-09-21T13:31:40.816Z,6.12
2017-09-21T13:34:08.347Z,6.60
2017-09-21T13:36:35.891Z,8.68
2017-09-21T13:39:04.247Z,7.25
2017-09-21T13:41:31.742Z,7.75
2017-09-21T13:43:59.282Z,8.00
2017-09-21T13:46:26.787Z,9.65
2017-09-21T13:48:55.052Z,7.65
2017-09-21T13:51:23.328Z,8.63
2017-09-21T13:53:51.600Z,7.07
2017-09-21T13:56:19.110Z,8.48
2017-09-21T13:58:46.603Z,8.65
2017-09-21T14:01:14.131Z,7.97
2017-09-21T14:03:41.641Z,7.37
2017-09-21T14:06:09.927Z,7.68
2017-09-21T14:08:38.202Z,5.50
2017-09-21T14:11:06.482Z,10.38
2017-09-21T14:13:34.747Z,9.43
2017-09-21T14:16:03.035Z,9.73
2017-09-21T14:18:31.300Z,8.55
2017-09-21T14:20:59.591Z,10.02
2017-09-21T14:23:27.869Z,7.97
2017-09-21T14:25:55.428Z,13.30
2017-09-21T14:28:23.703Z,7.90
2017-09-21T14:30:51.982Z,8.90
2017-09-21T14:33:19.491Z,7.30
2017-09-21T14:35:47.026Z,11.32
2017-09-21T14:38:14.531Z,10.73
2017-09-21T14:40:42.043Z,8.65
2017-09-21T14:43:09.557Z,6.40
2017-09-21T14:45:37.091Z,10.18
2017-09-21T14:48:04.594Z,9.30
2017-09-21T14:50:32.106Z,8.38
2017-09-21T14:52:59.629Z,13.35
2017-09-21T14:55:27.136Z,9.05
2017-09-21T14:57:54.670Z,7.78
2017-09-21T15:00:22.199Z,8.57
2017-09-21T15:02:49.714Z,7.75
2017-09-21T15:05:17.236Z,9.77
2017-09-21T15:07:44.764Z,8.98
2017-09-21T15:10:13.041Z,7.07
2017-09-21T15:12:41.516Z,8.93
2017-09-21T15:15:09.017Z,6.70
2017-09-21T15:17:36.618Z,8.15
2017-09-21T15:20:04.110Z,8.25
2017-09-21T15:22:31.686Z,7.65
2017-09-21T15:24:59.186Z,6.00
2017-09-21T15:27:26.710Z,6.28
2017-09-21T15:29:54.206Z,8.68
2017-09-21T15:32:21.786Z,6.93
2017-09-21T15:34:50.062Z,7.65
2017-09-21T15:37:17.589Z,8.00
2017-09-21T15:39:45.093Z,6.70
2017-09-21T15:42:13.370Z,5.68
2017-09-21T15:44:41.629Z,9.90
2017-09-21T15:47:09.157Z,6.68
2017-09-21T15:49:36.661Z,10.00
2017-09-21T15:52:04.927Z,6.43
2017-09-21T15:54:33.214Z,6.28
2017-09-21T15:57:01.499Z,5.78
2017-09-21T15:59:29.787Z,6.50
2017-09-21T16:01:57.320Z,8.23
2017-09-21T16:04:24.845Z,8.10
2017-09-21T16:06:52.354Z,10.95
2017-09-21T16:09:20.646Z,9.05
2017-09-21T16:11:48.158Z,10.05
2017-09-21T16:14:15.682Z,6.12
2017-09-21T16:16:43.176Z,7.93
2017-09-21T16:19:10.694Z,8.57
2017-09-21T16:21:38.195Z,8.35
2017-09-21T16:24:05.741Z,7.30
2017-09-21T16:26:33.238Z,5.72
2017-09-21T16:29:01.539Z,12.43
2017-09-21T16:31:29.042Z,6.87
2017-09-21T16:33:56.561Z,6.53
2017-09-21T16:36:24.062Z,5.20
2017-09-21T16:38:51.681Z,8.05
2017-09-21T16:41:19.250Z,7.82
2017-09-21T16:43:46.805Z,7.00
2017-09-21T16:46:14.334Z,6.35
2017-09-21T16:48:42.746Z,8.73
2017-09-21T16:51:11.020Z,8.07
2017-09-21T16:53:38.623Z,7.22
2017-09-21T16:56:06.877Z,7.10
2017-09-21T16:58:34.473Z,7.55
2017-09-21T17:01:02.782Z,9.77
2017-09-21T17:03:30.323Z,8.38
2017-09-21T17:05:58.623Z,14.23
2017-09-21T17:08:26.118Z,13.52
2017-09-21T17:10:53.652Z,23.20
2017-09-21T17:13:21.177Z,8.65
2017-09-21T17:15:49.454Z,8.82
2017-09-21T17:18:17.731Z,9.50
2017-09-21T17:20:45.280Z,10.55
2017-09-21T17:23:13.567Z,13.15
2017-09-21T17:25:41.103Z,13.45
2017-09-21T17:28:08.614Z,11.23
2017-09-21T17:30:36.141Z,9.40
2017-09-21T17:33:04.410Z,9.55
2017-09-21T17:35:32.693Z,7.68
2017-09-21T17:38:01.000Z,10.88
2017-09-21T17:40:28.510Z,11.50
2017-09-21T17:42:56.022Z,12.07
2017-09-21T17:45:23.540Z,10.80
2017-09-21T17:47:51.830Z,9.23
2017-09-21T17:50:20.135Z,8.82
2017-09-21T17:52:47.654Z,11.32
2017-09-21T17:55:15.944Z,10.48
2017-09-21T17:57:43.466Z,10.70
2017-09-21T18:00:10.963Z,8.48
2017-09-21T18:02:39.237Z,9.77
2017-09-21T18:05:07.514Z,12.95
2017-09-21T18:07:35.587Z,10.90
2017-09-21T18:10:03.103Z,9.73
2017-09-21T18:12:30.651Z,11.18
2017-09-21T18:14:58.156Z,11.20
2017-09-21T18:17:26.498Z,9.80
2017-09-21T18:19:54.007Z,9.30
2017-09-21T18:22:21.527Z,10.25
2017-09-21T18:24:49.039Z,12.40
2017-09-21T18:27:16.580Z,12.10
2017-09-21T18:29:44.851Z,11.85
2017-09-21T18:32:12.450Z,14.27
2017-09-21T18:34:39.945Z,12.10
2017-09-21T18:37:07.470Z,12.80
2017-09-21T18:39:34.980Z,13.73
2017-09-21T18:42:03.279Z,11.82
2017-09-21T18:44:31.549Z,16.42
2017-09-21T18:46:59.842Z,11.35
2017-09-21T18:49:30.352Z,15.80
2017-09-21T18:51:58.666Z,11.35
2017-09-21T18:54:26.239Z,12.40
2017-09-21T18:56:53.749Z,12.30
2017-09-21T18:59:22.029Z,13.95
2017-09-21T19:01:50.290Z,13.20
2017-09-21T19:04:18.575Z,15.52
2017-09-21T19:06:46.861Z,16.70
2017-09-21T19:09:14.414Z,18.45
2017-09-21T19:11:42.694Z,18.70
2017-09-21T19:14:10.990Z,21.58
2017-09-21T19:16:38.490Z,15.82
2017-09-21T19:19:06.019Z,18.33
2017-09-21T19:21:33.535Z,17.85
2017-09-21T19:24:01.062Z,23.45
2017-09-21T19:26:28.588Z,24.05
2017-09-21T19:28:56.121Z,22.23
2017-09-21T19:31:23.635Z,17.05
2017-09-21T19:33:51.188Z,21.40
2017-09-21T19:36:18.708Z,16.77
2017-09-21T19:38:46.232Z,22.80
2017-09-21T19:41:13.785Z,19.87
2017-09-21T19:43:41.318Z,18.75
2017-09-21T19:46:08.901Z,22.27
2017-09-21T19:48:36.492Z,28.00
2017-09-21T19:51:04.015Z,30.02
2017-09-21T19:53:31.618Z,37.05
2017-09-21T19:55:59.886Z,30.60
2017-09-21T19:58:28.175Z,28.38
2017-09-21T20:00:56.486Z,33.70
2017-09-21T20:03:24.065Z,30.50
2017-09-21T20:05:51.629Z,29.15
2017-09-21T20:08:19.131Z,26.42
2017-09-21T20:10:47.470Z,26.85
2017-09-21T20:13:14.978Z,24.25
2017-09-21T20:15:42.517Z,25.60
2017-09-21T20:18:10.799Z,23.77
2017-09-21T20:20:39.102Z,23.62
2017-09-21T20:23:06.614Z,22.23
2017-09-21T20:25:34.932Z,18.80
2017-09-21T20:28:02.444Z,20.37
2017-09-21T20:30:29.976Z,20.77
2017-09-21T20:32:57.493Z,25.70
2017-09-21T20:35:25.782Z,25.92
2017-09-21T20:37:54.078Z,19.73
2017-09-21T20:40:21.618Z,18.77
2017-09-21T20:42:49.127Z,18.77
2017-09-21T20:45:16.684Z,20.58
2017-09-21T20:47:44.190Z,18.05
2017-09-21T20:50:12.482Z,19.48
2017-09-21T20:52:39.989Z,18.67
2017-09-21T20:55:07.542Z,19.15
2017-09-21T20:57:35.045Z,19.75
2017-09-21T21:00:03.322Z,18.15
2017-09-21T21:02:31.642Z,16.00
2017-09-21T21:04:59.154Z,20.58
2017-09-21T21:07:27.441Z,18.42
2017-09-21T21:09:54.980Z,21.00
2017-09-21T21:12:22.517Z,22.00
2017-09-21T21:14:50.031Z,18.65
2017-09-21T21:17:17.557Z,19.10
2017-09-21T21:19:45.058Z,16.52
2017-09-21T21:22:12.583Z,24.02
2017-09-21T21:24:40.102Z,21.42
2017-09-21T21:27:07.666Z,16.85
2017-09-21T21:29:35.196Z,18.23
2017-09-21T21:32:02.722Z,17.30
2017-09-21T21:34:30.988Z,16.02
2017-09-21T21:36:58.515Z,17.45
2017-09-21T21:39:26.020Z,15.82
2017-09-21T21:41:54.317Z,16.20
2017-09-21T21:44:21.837Z,19.55
2017-09-21T21:46:49.367Z,15.02
2017-09-21T21:49:16.919Z,16.05
2017-09-21T21:51:44.453Z,15.60
2017-09-21T21:54:11.967Z,14.35
2017-09-21T21:56:39.562Z,16.40
2017-09-21T21:59:07.850Z,16.95
2017-09-21T22:01:35.362Z,14.57
2017-09-21T22:04:02.886Z,16.00
2017-09-21T22:06:30.411Z,15.48
2017-09-21T22:08:58.705Z,14.30
2017-09-21T22:11:26.201Z,17.90
2017-09-21T22:13:53.730Z,13.70
2017-09-21T22:16:21.231Z,14.55
2017-09-21T22:18:48.774Z,14.48
2017-09-21T22:21:16.294Z,16.87
2017-09-21T22:23:43.798Z,15.18
2017-09-21T22:26:11.326Z,15.73
2017-09-21T22:28:38.839Z,16.35
2017-09-21T22:31:06.366Z,20.62
2017-09-21T22:33:33.875Z,16.23
2017-09-21T22:36:02.163Z,23.05
2017-09-21T22:38:30.442Z,17.55
2017-09-21T22:40:58.735Z,16.98
2017-09-21T22:43:26.245Z,19.95
2017-09-21T22:45:53.773Z,14.50
2017-09-21T22:48:21.282Z,16.75
2017-09-21T22:50:49.582Z,18.02
2017-09-21T22:53:17.106Z,18.15
2017-09-21T22:55:44.630Z,19.00
2017-09-21T22:58:12.134Z,17.30
2017-09-21T23:00:40.413Z,13.38
2017-09-21T23:03:07.929Z,19.45
2017-09-21T23:05:35.463Z,16.30
2017-09-21T23:08:03.023Z,16.33
2017-09-21T23:10:30.552Z,14.40
2017-09-21T23:12:58.825Z,15.57
2017-09-21T23:15:27.142Z,17.98
2017-09-21T23:17:54.682Z,14.85
2017-09-21T23:20:22.194Z,15.35
2017-09-21T23:22:49.715Z,17.98
2017-09-21T23:25:17.230Z,14.57
2017-09-21T23:27:44.760Z,15.57
2017-09-21T23:30:12.278Z,15.05
2017-09-21T23:32:39.807Z,17.58
2017-09-21T23:35:07.310Z,19.10
2017-09-21T23:37:34.835Z,15.10
2017-09-21T23:40:03.147Z,17.48
2017-09-21T23:42:30.673Z,16.00
2017-09-21T23:44:58.950Z,13.82
2017-09-21T23:47:26.466Z,14.55
2017-09-21T23:49:53.965Z,14.43
2017-09-21T23:52:22.251Z,14.82
2017-09-21T23:54:50.518Z,11.60
2017-09-21T23:57:18.799Z,14.60
2017-09-21T23:59:47.078Z,12.45
